• Join FlightAware (Why Join?)
  • Login
  • US Flag 
12:36AM EST


 

Airport Tracker/Info


-or-


 

Live Flight TrackerFlight Track Log ✈ FDX739 ✈ 19-Apr-2013 ✈ KLCK - KCLE

Flight Track Log - Related Links

Times and Time Zones

All times are in EDT time to prevent confusion due to time zone crossing. See the FDX739 flight status page for this flight to view local times or setup timezone preferences in your user account.

Time Position Orientation Groundspeed Altitude Reporting Facility
EDT Latitude Longitude Course Direction KTS MPH feet Rate Location/Type
07:01PM 39.8150 -82.9294 62° Northeast 139 160 1,300  Level Indianapolis Center
07:07PM 39.9350 -82.6380 37° Northeast 18,900 3,180 Climbing FlightAware
07:08PM 40.0050 -82.5700 37° Northeast 19,000  Climbing FlightAware
07:08PM 40.0780 -82.4990 37° Northeast 19,000 120 Level FlightAware
07:09PM 40.1530 -82.4250 37° Northeast 19,000 60 Level FlightAware
07:10PM 40.2170 -82.3630 36° Northeast 19,000  Level FlightAware
07:10PM 40.2950 -82.2870 37° Northeast 19,000  Level FlightAware
07:11PM 40.3630 -82.2200 37° Northeast 19,000  Level FlightAware
07:12PM 40.4300 -82.1540 37° Northeast 19,000  Level FlightAware
07:12PM 40.5040 -82.0810 37° Northeast 18,100  Descending FlightAware
07:13PM 40.5720 -82.0140 37° Northeast 16,900 -180 Descending FlightAware
07:14PM 40.6360 -81.9500 37° Northeast 15,700 -360 Descending FlightAware
07:15PM 40.7040 -81.8820 37° Northeast 14,100 -480 Descending FlightAware
07:15PM 40.7630 -81.8240 37° Northeast 12,800 -660 Descending FlightAware
07:16PM 40.8290 -81.7580 37° Northeast 11,400 -780 Descending FlightAware
07:17PM 40.8850 -81.7000 38° Northeast 10,300 -840 Descending FlightAware
07:17PM 40.9380 -81.6510 35° Northeast 10,200 -900 Descending FlightAware
07:18PM 40.9620 -81.6430 14° North 10,200 -840 Level FlightAware
07:18PM 41.0010 -81.6550 347° North 10,200 -840 Level FlightAware
07:19PM 41.0530 -81.6830 338° Northwest 10,200 -780 Level FlightAware
07:19PM 41.1130 -81.7110 341° North 10,000 -780 Descending FlightAware
07:20PM 41.1460 -81.7140 356° North 9,500 -720 Descending FlightAware
07:20PM 41.1880 -81.7180 356° North 8,900 -780 Descending FlightAware
07:21PM 41.2220 -81.7210 356° North 8,500 -780 Descending FlightAware
07:21PM 41.2580 -81.7170 North 8,100 -780 Descending FlightAware
07:22PM 41.2970 -81.7110 North 7,600 -780 Descending FlightAware
07:22PM 41.3300 -81.7070 North 6,800 -780 Descending FlightAware
07:23PM 41.3660 -81.7020 North 5,800 -840 Descending FlightAware
07:23PM 41.3980 -81.6970 North 5,100 -840 Descending FlightAware
07:24PM 41.4330 -81.6920 North 4,300 -900 Descending FlightAware
07:24PM 41.4580 -81.6890 North 4,200 -900 Descending FlightAware
07:25PM 41.4810 -81.7080 328° Northwest 3,500 -900 Descending FlightAware
07:25PM 41.4780 -81.7480 264° West 2,700 -900 Descending FlightAware
07:26PM 41.4680 -81.7650 232° Southwest 2,500 -900 Descending FlightAware
07:26PM 41.4610 -81.7760 230° Southwest 2,400 -900 Descending FlightAware
07:26PM 41.4560 -81.7840 230° Southwest 2,200 -900 Descending FlightAware
07:27PM 41.4460 -81.8000 230° Southwest 1,900 -900 Descending FlightAware
07:27PM 41.4360 -81.8160 230° Southwest 1,600 -900 Descending FlightAware
07:27PM 41.4310 -81.8240 230° Southwest 1,500 -900 Descending FlightAware
07:28PM 41.4230 -81.8360 228° Southwest 1,200 -900 Descending FlightAware